Terminal Aerodrome Forecast
Issued by NWS

Current Version | Previous Version | Text Only | Print | Product List | Glossary Off
Versions: 1 2 3 4 5 6 7 8 9 10 11 12 13 14 15 16 17 18 19 20 21 22 23 24

768
FTUS41 KPBZ 101357 AAA
TAFMGW
TAF AMD
KMGW 101357Z 1014/1112 24008KT P6SM OVC015
      TEMPO 1014/1016 1SM -SHSN
     FM102100 25010KT 1 1/2SM -SHSN OVC012
     FM110100 25010KT 4SM -SHSN OVC022=

USA.gov is the U.S. government's official web portal to all federal, state and local government web resources and services.